CheckWX is a tool to help pilots better visualize weather data.  It is not intended as a substitute for an official pre-flight weather briefing.

14:30:22 UTC

KDXR METAR
Danbury Municipal Airport
Danbury, Connecticut, USA
Current

37 mins ago

KDXR 201353Z VRB04KT 10SM CLR 30/23 A2987 RMK AO2 SLP108 T03000233
Observed
Jul-20 @ 13:53 UTC
Wind
  • Variable at 4 KTS
Visibility
10 SM
Flight Rules
VFR
Cloud Levels
  • Clear skies
Temperature
30°C / 86°F
Dewpoint
23°C / 73°F
Heat Index
34°C / 93°F
Humidity
66%
Altimeter
29.87" Hg
Pressure
1011.52 hPa
Previous

2 hours ago

KDXR 201253Z 27007KT 240V300 10SM FEW120 29/23 A2989 RMK AO2 SLP116 T02890228
Observed
Jul-20 @ 12:53 UTC
Wind
  • 270° at 7 KTS
Visibility
10 SM
Flight Rules
VFR
Cloud Levels
  • Few at 12,000' AGL
Temperature
29°C / 84°F
Dewpoint
23°C / 73°F
Heat Index
32°C / 90°F
Humidity
70%
Altimeter
29.89" Hg
Pressure
1012.22 hPa
Previous

3 hours ago

KDXR 201153Z 27004KT 10SM CLR 27/22 A2988 RMK AO2 SLP114 T02720217 10272 20233 53008
Observed
Jul-20 @ 11:53 UTC
Wind
  • 270° at 4 KTS
Visibility
10 SM
Flight Rules
VFR
Cloud Levels
  • Clear skies
Temperature
27°C / 81°F
Dewpoint
22°C / 72°F
Heat Index
29°C / 85°F
Humidity
74%
Altimeter
29.88" Hg
Pressure
1011.82 hPa